Kzyl-Orda, Kazakhstan
Current Conditions -  °F | °C
As of 2:00 AM on Saturday 20 Dec 2014 (Local Time) from UAOO Reporting Station
Haze Haze  
Wind Chill: 28°   Ceiling: 4000
Heat Index: 32°   Visibility: 3mi
Dew Point: 30°   Wind: 4mph
Humidity: 93%   Direction: 120°ESE
Pressure: 30.27"   Gusts: NA
Location:  44.87°N, 65.48°E
Report Text: UAOO 192100Z 12002MPS 090V150 5000 BR OVC040 00/M01 Q1025 NOSIGRMK QFE757/1010
Loading
Personal Weather Stations






























Interactive Weather Map New forecast layout! Learn more

10-Day Weather Forecast

Advertisements
Track Severe Weather on mobile